Time;durP1;ratioP1;P1;durP2;ratioP2;P2;SDS_P1;SDS_P2;PMS_P1;PMS_P2;Temp;Humidity;BMP_temperature;BMP_pressure;BME280_temperature;BME280_humidity;BME280_pressure;Samples;Min_cycle;Max_cycle;Signal;HPM_P1;HPM_P2
2021/10/28 00:13:08;;;;;;;18.50;16.57;;;7.30;99.90;;;;;;4939273;29;20428;-69
2021/10/28 00:15:39;;;;;;;24.10;14.33;;;7.20;99.90;;;;;;4936918;29;20536;-69
2021/10/28 00:18:17;;;;;;;18.00;15.40;;;7.20;99.90;;;;;;4948959;29;20472;-69
2021/10/28 00:20:43;;;;;;;18.00;13.70;;;7.10;99.90;;;;;;4953382;29;20925;-69
2021/10/28 00:23:10;;;;;;;19.23;15.90;;;7.10;99.90;;;;;;4936750;29;20469;-69
2021/10/28 00:25:41;;;;;;;17.10;15.03;;;7.10;99.90;;;;;;4945636;29;20522;-69
2021/10/28 00:28:06;;;;;;;17.03;15.10;;;7.10;99.90;;;;;;4940952;29;20453;-69
2021/10/28 00:30:32;;;;;;;21.40;16.07;;;7.00;99.90;;;;;;4949997;29;20564;-69
2021/10/28 00:32:58;;;;;;;22.80;18.00;;;7.00;99.90;;;;;;4939794;29;20189;-69
2021/10/28 00:35:23;;;;;;;23.23;19.70;;;7.10;99.90;;;;;;4948063;28;20437;-69
2021/10/28 00:37:50;;;;;;;27.80;22.50;;;7.10;99.90;;;;;;4948258;29;20227;-69
2021/10/28 00:40:18;;;;;;;27.57;21.00;;;7.10;99.90;;;;;;4952154;29;20178;-69
2021/10/28 00:42:43;;;;;;;24.60;21.97;;;7.10;99.90;;;;;;4937094;29;20429;-69
2021/10/28 00:45:09;;;;;;;29.03;24.30;;;7.00;99.90;;;;;;4943846;29;20492;-70
2021/10/28 00:47:38;;;;;;;33.13;24.83;;;7.00;99.90;;;;;;4945709;29;20184;-69
2021/10/28 00:50:05;;;;;;;29.70;23.70;;;6.90;99.90;;;;;;4944517;29;20299;-69
2021/10/28 00:52:31;;;;;;;35.30;26.57;;;6.90;99.90;;;;;;4936355;28;20943;-69
2021/10/28 00:54:56;;;;;;;27.27;23.40;;;7.00;99.90;;;;;;4945992;29;20511;-69
2021/10/28 00:57:22;;;;;;;25.67;22.93;;;7.00;99.90;;;;;;4954163;29;20243;-69
2021/10/28 00:59:47;;;;;;;30.33;23.90;;;7.10;99.90;;;;;;4936078;29;20193;-69
2021/10/28 01:02:14;;;;;;;31.33;26.00;;;7.10;99.90;;;;;;4966434;28;20619;-69
2021/10/28 01:04:40;;;;;;;31.50;25.30;;;7.10;99.90;;;;;;4940957;29;20184;-69
2021/10/28 01:07:05;;;;;;;46.13;26.33;;;7.10;99.90;;;;;;4947720;29;20437;-69
2021/10/28 01:09:31;;;;;;;44.03;26.13;;;7.20;99.90;;;;;;4946749;29;20548;-69
2021/10/28 01:11:57;;;;;;;101.47;28.73;;;7.10;99.90;;;;;;4938792;29;20694;-69
2021/10/28 01:14:23;;;;;;;100.27;28.27;;;7.10;99.90;;;;;;4937757;29;20182;-69
2021/10/28 01:16:54;;;;;;;114.60;29.40;;;7.00;99.90;;;;;;4954581;29;20793;-69
2021/10/28 01:19:23;;;;;;;126.33;29.90;;;6.90;99.90;;;;;;4953807;29;20985;-69
2021/10/28 01:21:50;;;;;;;128.73;31.10;;;6.90;99.90;;;;;;4954399;29;20467;-69
2021/10/28 01:24:16;;;;;;;114.07;31.47;;;6.90;99.90;;;;;;4937659;29;20464;-69
2021/10/28 01:26:41;;;;;;;212.60;34.07;;;6.90;99.90;;;;;;4935889;29;20433;-69
2021/10/28 01:29:07;;;;;;;219.70;34.87;;;6.80;99.90;;;;;;4935849;29;20468;-69
2021/10/28 01:31:35;;;;;;;150.00;30.17;;;6.80;99.90;;;;;;4938349;28;20177;-69
2021/10/28 01:34:04;;;;;;;108.50;29.93;;;6.80;99.90;;;;;;4935722;29;20192;-69
2021/10/28 01:36:30;;;;;;;105.80;29.57;;;6.80;99.90;;;;;;4940971;29;20447;-69
2021/10/28 01:38:55;;;;;;;113.20;27.77;;;7.00;99.90;;;;;;4952544;29;21037;-69
2021/10/28 01:41:22;;;;;;;183.03;29.60;;;7.00;99.90;;;;;;4939717;29;20546;-69
2021/10/28 01:43:47;;;;;;;93.93;27.83;;;6.90;99.90;;;;;;4952378;29;20216;-69
2021/10/28 01:46:13;;;;;;;187.30;30.60;;;6.90;99.90;;;;;;4941819;29;20468;-69
2021/10/28 01:48:40;;;;;;;131.23;27.77;;;7.00;99.90;;;;;;4945149;29;20206;-69
2021/10/28 01:51:11;;;;;;;141.63;29.87;;;6.90;99.90;;;;;;4945447;29;20205;-69
2021/10/28 01:53:41;;;;;;;112.07;25.50;;;7.00;99.90;;;;;;4935223;29;20892;-69
2021/10/28 01:56:08;;;;;;;106.23;26.77;;;6.90;99.90;;;;;;4949576;29;20659;-69
2021/10/28 01:58:35;;;;;;;83.50;23.57;;;6.80;99.90;;;;;;4941902;29;20457;-69
2021/10/28 02:01:01;;;;;;;80.37;23.53;;;6.80;99.90;;;;;;4953309;29;20988;-69
2021/10/28 02:03:26;;;;;;;66.47;23.17;;;6.70;99.90;;;;;;4940484;29;20456;-69
2021/10/28 02:05:52;;;;;;;66.10;21.73;;;6.60;99.90;;;;;;4936440;29;20437;-69
2021/10/28 02:08:18;;;;;;;64.37;20.97;;;6.50;99.90;;;;;;4952178;29;20283;-69
2021/10/28 02:10:43;;;;;;;55.33;21.60;;;6.50;99.90;;;;;;4944839;29;20260;-69
2021/10/28 02:13:10;;;;;;;57.77;22.03;;;6.50;99.90;;;;;;4959189;28;20553;-69
2021/10/28 02:15:35;;;;;;;39.87;21.93;;;6.40;99.90;;;;;;4935250;29;20185;-69
2021/10/28 02:18:01;;;;;;;39.43;21.17;;;6.40;99.90;;;;;;4953355;29;20843;-69
2021/10/28 02:20:27;;;;;;;33.73;20.43;;;6.30;99.90;;;;;;4965235;28;20821;-68
2021/10/28 02:22:52;;;;;;;60.57;19.73;;;6.20;99.90;;;;;;4936536;29;20181;-70
2021/10/28 02:25:18;;;;;;;36.97;20.17;;;6.20;99.90;;;;;;4947853;29;20491;-69
2021/10/28 02:27:44;;;;;;;41.57;19.10;;;6.30;99.90;;;;;;4936897;29;20230;-68
2021/10/28 02:30:12;;;;;;;22.30;18.40;;;6.30;99.90;;;;;;4953185;29;20228;-68
2021/10/28 02:32:38;;;;;;;27.10;18.20;;;6.30;99.90;;;;;;4945487;29;20298;-68
2021/10/28 02:35:05;;;;;;;20.47;17.80;;;6.30;99.90;;;;;;4944498;29;20473;-68
2021/10/28 02:37:30;;;;;;;22.27;19.13;;;6.20;99.90;;;;;;4939119;29;20181;-68
2021/10/28 02:39:56;;;;;;;18.00;16.20;;;6.20;99.90;;;;;;4936389;29;20584;-69
2021/10/28 02:42:21;;;;;;;21.67;17.57;;;6.20;99.90;;;;;;4948378;29;20667;-69
2021/10/28 02:44:47;;;;;;;20.87;18.47;;;6.10;99.90;;;;;;4945623;29;20188;-69
2021/10/28 02:47:13;;;;;;;19.30;16.90;;;6.10;99.90;;;;;;4940210;29;20688;-69
2021/10/28 02:49:39;;;;;;;18.53;16.33;;;6.10;99.90;;;;;;4950065;29;20193;-69
2021/10/28 02:52:06;;;;;;;18.80;16.90;;;6.00;99.90;;;;;;4938304;29;20559;-68
2021/10/28 02:54:32;;;;;;;19.10;16.90;;;6.00;99.90;;;;;;4953212;29;20232;-69
2021/10/28 02:56:57;;;;;;;17.73;14.03;;;6.00;99.90;;;;;;4934627;29;20448;-69
2021/10/28 02:59:23;;;;;;;21.03;16.90;;;6.00;99.90;;;;;;4950513;29;20460;-69
2021/10/28 03:01:51;;;;;;;16.10;14.40;;;6.00;99.90;;;;;;4949606;29;20201;-69
2021/10/28 03:04:20;;;;;;;17.70;15.80;;;5.90;99.90;;;;;;4971650;28;20199;-69
2021/10/28 03:06:46;;;;;;;20.23;16.90;;;5.90;99.90;;;;;;4953931;29;20436;-69
2021/10/28 03:09:18;;;;;;;18.70;16.53;;;5.90;99.90;;;;;;4941014;29;20464;-69
2021/10/28 03:11:46;;;;;;;16.00;14.23;;;5.90;99.90;;;;;;4950147;28;20437;-69
2021/10/28 03:14:14;;;;;;;17.77;15.93;;;5.90;99.90;;;;;;4937981;29;20854;-69
2021/10/28 03:27:11;;;;;;;18.70;16.30;;;5.90;99.90;;;;;;4953035;29;20507;-69
2021/10/28 03:29:36;;;;;;;22.83;16.47;;;5.80;99.90;;;;;;4955801;29;20492;-69
2021/10/28 03:32:02;;;;;;;20.70;16.93;;;5.80;99.90;;;;;;4951169;29;20180;-70
2021/10/28 03:34:28;;;;;;;23.03;17.80;;;5.70;99.90;;;;;;4937665;29;20672;-69
2021/10/28 03:37:06;;;;;;;19.97;16.53;;;5.70;99.90;;;;;;4951277;29;20193;-69
2021/10/28 03:50:25;;;;;;;32.97;23.73;;;5.70;99.90;;;;;;4913548;29;20435;-70
2021/10/28 03:56:03;;;;;;;30.83;22.50;;;5.60;99.90;;;;;;4952853;29;20800;-70
2021/10/28 04:06:43;;;;;;;36.90;25.77;;;5.60;99.90;;;;;;4918900;29;20452;-70
2021/10/28 04:20:24;;;;;;;53.37;27.03;;;5.60;99.90;;;;;;4940171;29;20513;-69
2021/10/28 04:31:02;;;;;;;40.37;28.83;;;5.70;99.90;;;;;;4945486;29;20449;-69
2021/10/28 04:33:28;;;;;;;45.60;29.20;;;5.80;99.90;;;;;;4936473;29;20815;-69
2021/10/28 04:35:53;;;;;;;46.80;27.83;;;5.80;99.90;;;;;;4952674;29;20313;-69
2021/10/28 04:38:19;;;;;;;40.83;28.33;;;5.90;99.90;;;;;;4953998;29;20468;-69
2021/10/28 04:40:44;;;;;;;43.90;30.00;;;5.90;99.90;;;;;;4954858;29;20209;-69
2021/10/28 04:43:10;;;;;;;42.60;29.93;;;5.90;99.90;;;;;;4947110;29;20557;-69
2021/10/28 04:45:35;;;;;;;44.50;29.60;;;6.00;99.90;;;;;;4936680;29;20201;-69
2021/10/28 04:48:01;;;;;;;42.53;29.63;;;6.10;99.90;;;;;;4964972;28;20529;-69
2021/10/28 04:50:27;;;;;;;48.63;31.50;;;6.20;99.90;;;;;;4952628;29;20192;-69
2021/10/28 04:52:52;;;;;;;49.53;31.53;;;6.30;99.90;;;;;;4941207;29;20268;-69
2021/10/28 04:55:18;;;;;;;41.67;29.47;;;6.30;99.90;;;;;;4945715;29;20185;-70
2021/10/28 04:57:43;;;;;;;48.27;30.20;;;6.30;99.90;;;;;;4945208;29;20944;-69
2021/10/28 05:00:10;;;;;;;44.43;30.47;;;6.30;99.90;;;;;;4954805;28;20181;-69
2021/10/28 05:02:36;;;;;;;49.50;33.10;;;6.30;99.90;;;;;;4954100;29;20291;-69
2021/10/28 05:05:02;;;;;;;38.97;28.57;;;6.30;99.90;;;;;;4946184;29;20521;-69
2021/10/28 05:07:27;;;;;;;45.23;30.23;;;6.30;99.90;;;;;;4946087;29;20887;-69
2021/10/28 05:09:53;;;;;;;46.57;31.13;;;6.40;99.90;;;;;;4954676;28;20663;-69
2021/10/28 05:12:18;;;;;;;45.67;32.90;;;6.30;99.90;;;;;;4954193;28;20264;-69
2021/10/28 05:14:44;;;;;;;49.23;30.63;;;6.40;99.90;;;;;;4953695;28;20558;-69
2021/10/28 05:17:10;;;;;;;47.33;31.60;;;6.30;99.90;;;;;;4954407;29;20211;-69
2021/10/28 05:19:39;;;;;;;42.97;29.63;;;6.40;99.90;;;;;;4953907;29;20563;-69
2021/10/28 05:22:06;;;;;;;45.53;28.80;;;6.40;99.90;;;;;;4954447;28;20217;-69
2021/10/28 05:24:32;;;;;;;44.67;28.33;;;6.30;99.90;;;;;;4939359;29;20908;-69
2021/10/28 05:26:58;;;;;;;47.93;31.10;;;6.30;99.90;;;;;;4953768;29;20475;-69
2021/10/28 05:29:23;;;;;;;41.10;30.57;;;6.30;99.90;;;;;;4953693;29;20646;-69
2021/10/28 05:31:49;;;;;;;43.20;29.30;;;6.30;99.90;;;;;;4944702;29;20186;-69
2021/10/28 05:34:15;;;;;;;47.87;30.57;;;6.20;99.90;;;;;;4942642;29;20185;-69
2021/10/28 05:36:40;;;;;;;41.70;28.73;;;6.20;99.90;;;;;;4949491;28;20235;-69
2021/10/28 05:39:06;;;;;;;46.37;30.07;;;6.20;99.90;;;;;;4939080;29;20698;-69
2021/10/28 05:41:31;;;;;;;42.17;29.97;;;6.20;99.90;;;;;;4941900;29;20209;-69
2021/10/28 05:43:57;;;;;;;44.93;30.80;;;6.20;99.90;;;;;;4947961;29;20181;-70
2021/10/28 05:46:23;;;;;;;46.30;29.13;;;6.20;99.90;;;;;;4938648;29;20208;-71
2021/10/28 05:48:49;;;;;;;44.50;30.40;;;6.20;99.90;;;;;;4939763;28;20456;-70
2021/10/28 05:51:15;;;;;;;44.67;28.97;;;6.20;99.90;;;;;;4935842;29;20182;-70
2021/10/28 05:53:41;;;;;;;47.70;33.97;;;6.20;99.90;;;;;;4940677;29;20204;-70
2021/10/28 05:56:07;;;;;;;47.20;31.50;;;6.20;99.90;;;;;;4950281;29;20445;-70
2021/10/28 05:58:32;;;;;;;46.47;30.87;;;6.20;99.90;;;;;;4936839;29;20198;-70
2021/10/28 06:01:01;;;;;;;49.40;32.03;;;6.20;99.90;;;;;;4936718;29;20219;-70
2021/10/28 06:03:27;;;;;;;44.27;30.67;;;6.20;99.90;;;;;;4937733;29;20237;-70
2021/10/28 06:05:53;;;;;;;41.70;29.77;;;6.20;99.90;;;;;;4943165;29;20520;-70
2021/10/28 06:08:18;;;;;;;39.47;28.10;;;6.20;99.90;;;;;;4957166;28;20550;-66
2021/10/28 06:10:44;;;;;;;43.50;29.33;;;6.20;99.90;;;;;;4951908;28;20193;-66
2021/10/28 06:13:09;;;;;;;43.30;27.20;;;6.20;99.90;;;;;;4956621;28;20191;-66
2021/10/28 06:15:36;;;;;;;43.67;30.50;;;6.20;99.90;;;;;;4973244;28;20553;-70
2021/10/28 06:20:37;;;;;;;39.27;25.73;;;6.40;99.90;;;;;;4948267;28;20448;-72
2021/10/28 06:23:03;;;;;;;37.60;26.30;;;6.40;99.90;;;;;;4948861;28;20437;-72
2021/10/28 06:25:28;;;;;;;35.07;26.93;;;6.50;99.90;;;;;;4956013;28;20955;-71
2021/10/28 06:27:54;;;;;;;35.60;24.93;;;6.60;99.90;;;;;;4952716;29;20256;-71
2021/10/28 06:30:19;;;;;;;31.50;24.47;;;6.60;99.90;;;;;;4958011;28;20186;-72
2021/10/28 06:32:50;;;;;;;32.93;25.00;;;6.70;99.90;;;;;;4948357;28;20268;-71
2021/10/28 06:35:15;;;;;;;30.37;24.50;;;6.80;99.90;;;;;;4947793;29;20554;-71
2021/10/28 06:37:46;;;;;;;32.17;24.43;;;6.80;99.90;;;;;;4956439;28;20479;-71
2021/10/28 06:40:12;;;;;;;28.63;23.70;;;6.90;99.90;;;;;;4948982;29;20553;-71
2021/10/28 06:42:38;;;;;;;28.93;22.17;;;7.10;99.90;;;;;;4938477;29;20469;-69
2021/10/28 06:45:04;;;;;;;29.70;22.23;;;7.20;99.90;;;;;;4950597;28;20547;-69
2021/10/28 06:47:29;;;;;;;26.90;22.37;;;7.30;99.90;;;;;;4956351;28;20204;-69
2021/10/28 06:49:56;;;;;;;25.00;20.90;;;7.50;99.90;;;;;;4949120;28;20499;-70
2021/10/28 06:52:22;;;;;;;23.80;20.50;;;7.60;99.90;;;;;;4954080;29;20188;-69
2021/10/28 06:54:48;;;;;;;32.93;25.73;;;7.90;99.90;;;;;;4957880;28;20448;-69
2021/10/28 06:57:36;;;;;;;28.63;20.50;;;8.00;99.90;;;;;;4956244;29;20177;-69
2021/10/28 07:02:47;;;;;;;25.33;20.70;;;8.30;99.90;;;;;;4959986;28;20960;-69
2021/10/28 07:05:13;;;;;;;22.90;17.23;;;8.40;99.90;;;;;;4949056;28;20432;-69
2021/10/28 07:07:39;;;;;;;20.67;18.03;;;8.60;99.90;;;;;;4955813;28;20182;-69
2021/10/28 07:15:12;;;;;;;23.17;20.03;;;8.50;99.90;;;;;;4949108;28;20469;-68
2021/10/28 07:20:45;;;;;;;21.60;18.27;;;9.00;99.90;;;;;;4943342;28;20435;-68
2021/10/28 07:36:16;;;;;;;18.20;16.30;;;10.50;99.90;;;;;;4955948;29;20223;-68
2021/10/28 08:18:54;;;;;;;17.47;15.70;;;14.10;99.90;;;;;;4942097;29;20468;-70
2021/10/28 08:24:09;;;;;;;16.13;14.53;;;15.70;99.90;;;;;;4957498;28;20432;-69
2021/10/28 08:29:56;;;;;;;16.27;14.87;;;16.60;99.90;;;;;;4953854;28;20520;-69
2021/10/28 08:32:12;;;;;;;16.43;14.93;;;15.90;99.90;;;;;;4954319;28;20448;-70
2021/10/28 08:34:39;;;;;;;18.20;16.60;;;15.40;99.90;;;;;;4946220;28;20448;-70
2021/10/28 08:39:50;;;;;;;18.50;16.77;;;15.80;99.90;;;;;;4954710;28;20879;-70
2021/10/28 08:42:19;;;;;;;19.03;17.10;;;15.30;99.90;;;;;;4947134;28;20460;-70
2021/10/28 08:44:48;;;;;;;18.23;16.40;;;15.00;99.90;;;;;;4941908;28;20441;-70
2021/10/28 08:47:15;;;;;;;18.33;16.40;;;14.60;99.90;;;;;;4948491;28;20607;-69
2021/10/28 08:49:50;;;;;;;19.90;18.10;;;14.40;99.90;;;;;;4958784;28;20936;-70
2021/10/28 08:55:16;;;;;;;20.33;16.30;;;15.30;99.90;;;;;;4939275;29;20473;-70
2021/10/28 09:29:07;;;;;;;21.37;19.53;;;18.00;99.90;;;;;;4943360;28;20465;-70
2021/10/28 09:31:37;;;;;;;20.83;18.83;;;18.10;99.90;;;;;;4936501;29;20448;-70
2021/10/28 09:34:41;;;;;;;18.70;17.00;;;18.90;99.90;;;;;;4952708;28;20875;-70
2021/10/28 09:46:13;;;;;;;19.33;17.53;;;19.80;99.90;;;;;;4954496;29;20966;-71
2021/10/28 09:51:01;;;;;;;17.93;16.13;;;20.40;98.80;;;;;;4954462;28;20511;-71
2021/10/28 09:53:38;;;;;;;20.13;18.20;;;21.60;98.40;;;;;;4954393;28;20425;-71
2021/10/28 09:58:48;;;;;;;18.10;16.30;;;23.80;93.10;;;;;;4953969;29;20447;-71
2021/10/28 10:01:34;;;;;;;18.10;16.50;;;24.00;90.10;;;;;;4954139;28;20464;-71
2021/10/28 10:04:04;;;;;;;19.43;17.63;;;23.30;91.20;;;;;;4954114;28;20166;-71
2021/10/28 10:06:36;;;;;;;20.10;18.20;;;23.40;89.90;;;;;;4954013;28;20512;-71
2021/10/28 10:09:02;;;;;;;20.43;18.50;;;23.30;89.10;;;;;;4953220;28;20946;-71
2021/10/28 10:11:28;;;;;;;18.60;17.00;;;22.80;90.30;;;;;;4954136;28;20487;-71
2021/10/28 10:13:55;;;;;;;18.67;16.90;;;23.80;86.70;;;;;;4954123;28;20420;-71
2021/10/28 10:16:21;;;;;;;17.83;16.33;;;23.30;88.00;;;;;;4954030;28;20574;-71
2021/10/28 10:18:50;;;;;;;16.63;15.13;;;23.50;86.60;;;;;;4953830;28;20467;-72
2021/10/28 10:21:32;;;;;;;19.00;17.20;;;23.60;86.80;;;;;;4953984;28;20596;-71
2021/10/28 12:17:05;;;;;;;10.07;9.30;;;35.40;38.00;;;;;;4912504;28;20431;-72
2021/10/28 12:45:52;;;;;;;10.60;9.90;;;34.40;36.90;;;;;;4946232;29;20432;-72
2021/10/28 13:02:43;;;;;;;11.47;10.63;;;34.60;38.10;;;;;;4958746;28;20462;-72
2021/10/28 13:53:50;;;;;;;12.43;11.27;;;27.30;45.50;;;;;;4942749;29;20445;-72
2021/10/28 13:56:46;;;;;;;12.73;11.63;;;25.20;48.00;;;;;;4965152;28;20439;-72
2021/10/28 14:23:42;;;;;;;13.60;12.40;;;18.40;68.00;;;;;;4954612;28;20432;-71
2021/10/28 14:26:42;;;;;;;15.17;13.67;;;17.90;71.00;;;;;;4945971;28;20458;-71
2021/10/28 15:29:03;;;;;;;14.30;12.80;;;15.80;99.90;;;;;;4954622;29;20478;-71
2021/10/28 15:34:30;;;;;;;13.40;12.10;;;15.60;99.90;;;;;;4947796;29;20935;-72
2021/10/28 15:37:03;;;;;;;14.27;12.37;;;15.50;99.90;;;;;;4955801;28;20468;-71
2021/10/28 15:39:56;;;;;;;12.70;11.40;;;15.40;99.90;;;;;;4954730;29;20483;-71
2021/10/28 16:23:02;;;;;;;11.40;10.20;;;13.70;99.90;;;;;;4966469;28;20466;-71
2021/10/28 16:25:27;;;;;;;12.00;10.80;;;13.60;99.90;;;;;;4958725;28;20838;-70
2021/10/28 16:27:53;;;;;;;14.87;10.93;;;13.60;99.90;;;;;;4962198;28;20282;-66
2021/10/28 16:30:19;;;;;;;12.50;11.30;;;13.40;99.90;;;;;;4960460;28;20200;-71
2021/10/28 16:32:45;;;;;;;11.80;10.70;;;13.30;99.90;;;;;;4960587;28;20200;-71
2021/10/28 16:35:11;;;;;;;12.23;11.13;;;13.20;99.90;;;;;;4946212;29;20192;-71
2021/10/28 16:37:36;;;;;;;13.10;10.00;;;13.20;99.90;;;;;;4955924;28;20561;-71
2021/10/28 16:40:06;;;;;;;10.17;9.23;;;13.10;99.90;;;;;;4957867;28;20444;-72
2021/10/28 16:42:33;;;;;;;11.43;10.23;;;13.00;99.90;;;;;;4960248;28;20197;-71
2021/10/28 16:44:58;;;;;;;10.80;9.80;;;12.90;99.90;;;;;;4955080;29;20468;-66
2021/10/28 16:47:25;;;;;;;12.10;10.90;;;12.90;99.90;;;;;;4958757;28;20919;-72
2021/10/28 16:49:52;;;;;;;13.60;12.20;;;12.70;99.90;;;;;;4950843;28;20176;-71
2021/10/28 16:52:18;;;;;;;12.70;11.50;;;12.80;99.90;;;;;;4960930;28;20529;-73
2021/10/28 16:54:44;;;;;;;12.70;11.40;;;12.70;99.90;;;;;;4957573;28;20523;-73
2021/10/28 16:57:09;;;;;;;12.47;11.37;;;12.50;99.90;;;;;;4963160;28;20443;-73
2021/10/28 16:59:35;;;;;;;13.77;12.37;;;12.40;99.90;;;;;;4962411;28;20252;-72
2021/10/28 17:02:00;;;;;;;16.60;14.90;;;12.30;99.90;;;;;;4944737;28;20303;-72
2021/10/28 17:04:26;;;;;;;19.50;14.30;;;12.20;99.90;;;;;;4940527;29;20205;-72
2021/10/28 17:06:52;;;;;;;14.17;12.87;;;12.20;99.90;;;;;;4966764;28;20181;-71
2021/10/28 17:09:18;;;;;;;16.67;13.37;;;12.30;99.90;;;;;;4959355;28;20209;-71
2021/10/28 17:11:44;;;;;;;14.57;13.00;;;12.30;99.90;;;;;;4961940;28;20966;-71
2021/10/28 17:14:10;;;;;;;14.80;13.40;;;12.30;99.90;;;;;;4958923;28;20482;-71
2021/10/28 17:16:39;;;;;;;11.83;10.70;;;12.20;99.90;;;;;;4960796;28;20551;-72
2021/10/28 17:19:04;;;;;;;15.07;13.57;;;12.10;99.90;;;;;;4957053;28;20224;-71
2021/10/28 17:21:30;;;;;;;14.50;13.07;;;12.00;99.90;;;;;;4961499;28;20468;-72
2021/10/28 17:24:00;;;;;;;13.60;12.37;;;11.90;99.90;;;;;;4944320;29;20229;-71
2021/10/28 17:26:28;;;;;;;13.83;12.10;;;11.90;99.90;;;;;;4952987;28;20741;-71
2021/10/28 17:28:59;;;;;;;14.77;12.70;;;11.80;99.90;;;;;;4939451;29;20467;-72
2021/10/28 17:31:25;;;;;;;19.27;12.60;;;11.80;99.90;;;;;;4958168;28;20448;-71
2021/10/28 17:33:50;;;;;;;14.87;13.30;;;11.70;99.90;;;;;;4943174;29;20511;-72
2021/10/28 17:36:16;;;;;;;16.03;14.43;;;11.70;99.90;;;;;;4956998;28;20535;-71
2021/10/28 17:38:41;;;;;;;14.07;12.77;;;11.60;99.90;;;;;;4945102;29;20522;-71
2021/10/28 17:41:07;;;;;;;18.40;14.07;;;11.50;99.90;;;;;;4942563;29;20208;-70
2021/10/28 17:43:35;;;;;;;15.93;12.83;;;11.50;99.90;;;;;;4946704;29;20224;-69
2021/10/28 17:46:00;;;;;;;15.73;14.03;;;11.40;99.90;;;;;;4932214;29;20491;-70
2021/10/28 17:48:26;;;;;;;14.00;12.60;;;11.30;99.90;;;;;;4933006;29;20457;-70
2021/10/28 17:50:52;;;;;;;16.30;14.40;;;11.40;99.90;;;;;;4932209;29;20178;-70
2021/10/28 17:53:18;;;;;;;21.80;13.57;;;11.30;99.90;;;;;;4947654;29;20181;-69
2021/10/28 17:55:44;;;;;;;15.73;13.40;;;11.30;99.90;;;;;;4941069;29;20463;-70
2021/10/28 17:58:09;;;;;;;14.73;13.17;;;11.20;99.90;;;;;;4941483;29;20197;-70
2021/10/28 18:00:35;;;;;;;18.60;15.60;;;11.20;99.90;;;;;;4944500;29;20189;-70
2021/10/28 18:03:01;;;;;;;17.60;15.77;;;11.20;99.90;;;;;;4932256;29;20217;-70
2021/10/28 18:05:26;;;;;;;19.03;15.00;;;11.10;99.90;;;;;;4945920;29;20182;-70
2021/10/28 18:07:52;;;;;;;16.20;14.50;;;11.10;99.90;;;;;;4937320;29;20465;-70
2021/10/28 18:10:18;;;;;;;17.50;15.40;;;11.00;99.90;;;;;;4942672;29;20566;-70
2021/10/28 18:12:45;;;;;;;21.27;16.00;;;11.00;99.90;;;;;;4943491;29;20188;-70
2021/10/28 18:15:11;;;;;;;16.53;14.90;;;10.90;99.90;;;;;;4933536;29;20883;-70
2021/10/28 18:17:37;;;;;;;15.63;14.07;;;10.90;99.90;;;;;;4944607;29;20967;-69
2021/10/28 18:20:04;;;;;;;18.33;15.90;;;10.80;99.90;;;;;;4947354;29;20527;-69
2021/10/28 18:22:36;;;;;;;18.97;15.00;;;10.70;99.90;;;;;;4950399;29;21064;-70
2021/10/28 18:25:03;;;;;;;16.30;14.77;;;10.70;99.90;;;;;;4942421;29;20445;-70
2021/10/28 18:27:28;;;;;;;16.63;13.93;;;10.60;99.90;;;;;;4945907;29;20524;-69
2021/10/28 18:29:54;;;;;;;16.33;13.93;;;10.60;99.90;;;;;;4945335;29;20580;-70
2021/10/28 18:32:20;;;;;;;18.90;15.17;;;10.60;99.90;;;;;;4937941;29;20189;-69
2021/10/28 18:34:47;;;;;;;20.03;15.40;;;10.60;99.90;;;;;;4938275;29;20185;-69
2021/10/28 18:37:12;;;;;;;18.73;16.00;;;10.60;99.90;;;;;;4949627;29;20865;-70
2021/10/28 18:39:40;;;;;;;17.03;15.20;;;10.50;99.90;;;;;;4937516;29;20465;-70
2021/10/28 18:42:06;;;;;;;20.57;17.00;;;10.40;99.90;;;;;;4944803;29;20695;-69
2021/10/28 18:44:32;;;;;;;19.27;17.00;;;10.50;99.90;;;;;;4938600;29;20460;-70
2021/10/28 18:46:57;;;;;;;18.13;15.50;;;10.50;99.90;;;;;;4940506;29;20448;-70
2021/10/28 18:49:23;;;;;;;18.87;16.97;;;10.50;99.90;;;;;;4946658;28;20198;-69
2021/10/28 18:51:49;;;;;;;17.40;15.10;;;10.50;99.90;;;;;;4931447;29;20268;-70
2021/10/28 18:54:17;;;;;;;18.10;16.10;;;10.50;99.90;;;;;;4942408;29;20185;-70
2021/10/28 18:56:44;;;;;;;23.60;17.40;;;10.50;99.90;;;;;;4936874;29;20838;-70
2021/10/28 18:59:10;;;;;;;18.77;15.50;;;10.40;99.90;;;;;;4946482;29;20467;-69
2021/10/28 19:01:37;;;;;;;19.47;17.10;;;10.30;99.90;;;;;;4931180;29;20477;-70
2021/10/28 19:04:02;;;;;;;34.90;26.23;;;10.30;99.90;;;;;;4939193;29;20185;-70
2021/10/28 19:06:28;;;;;;;30.60;23.70;;;10.20;99.90;;;;;;4949586;29;20444;-70
2021/10/28 19:08:54;;;;;;;20.40;18.03;;;10.10;99.90;;;;;;4932177;29;20632;-70
2021/10/28 19:11:23;;;;;;;20.03;18.00;;;10.10;99.90;;;;;;4949228;29;20189;-69
2021/10/28 19:13:49;;;;;;;20.07;17.90;;;10.10;99.90;;;;;;4943784;29;20907;-70
2021/10/28 19:16:16;;;;;;;20.33;17.07;;;10.00;99.90;;;;;;4931124;29;20457;-69
2021/10/28 19:18:42;;;;;;;17.80;15.10;;;10.00;99.90;;;;;;4947282;29;20320;-70
2021/10/28 19:21:09;;;;;;;18.77;16.63;;;10.00;99.90;;;;;;4949411;29;21174;-70
2021/10/28 19:23:35;;;;;;;17.50;15.40;;;9.90;99.90;;;;;;4931150;29;21202;-70
2021/10/28 19:26:01;;;;;;;18.03;16.20;;;9.90;99.90;;;;;;4949737;29;20444;-69
2021/10/28 19:28:27;;;;;;;18.43;15.60;;;9.90;99.90;;;;;;4935285;29;21057;-69
2021/10/28 19:30:59;;;;;;;18.17;14.57;;;9.90;99.90;;;;;;4931083;29;20221;-70
2021/10/28 19:33:36;;;;;;;18.00;16.30;;;9.90;99.90;;;;;;4946273;29;20445;-69
2021/10/28 19:36:04;;;;;;;17.33;15.53;;;9.80;99.90;;;;;;4932152;29;20449;-69
2021/10/28 19:46:40;;;;;;;16.80;15.17;;;9.70;99.90;;;;;;4934368;29;20448;-70
2021/10/28 19:49:07;;;;;;;17.47;14.37;;;9.70;99.90;;;;;;4951756;29;20973;-69
2021/10/28 19:51:33;;;;;;;17.90;16.03;;;9.60;99.90;;;;;;4953033;29;20188;-69
2021/10/28 19:53:59;;;;;;;18.43;16.63;;;9.60;99.90;;;;;;4945391;29;20481;-69
2021/10/28 19:56:26;;;;;;;19.33;16.20;;;9.60;99.90;;;;;;4937764;29;20456;-68
2021/10/28 19:58:57;;;;;;;20.63;16.43;;;9.60;99.90;;;;;;4946908;29;20471;-70
2021/10/28 20:22:29;;;;;;;18.93;17.03;;;9.50;99.90;;;;;;4944586;29;20511;-70
2021/10/28 20:24:55;;;;;;;18.70;16.90;;;9.50;99.90;;;;;;4952748;29;20543;-69
2021/10/28 20:27:21;;;;;;;18.07;15.77;;;9.40;99.90;;;;;;4933802;29;20193;-71
2021/10/28 20:29:47;;;;;;;25.23;19.43;;;9.40;99.90;;;;;;4939456;29;20209;-69
2021/10/28 20:32:13;;;;;;;28.60;18.50;;;9.40;99.90;;;;;;4952125;29;20440;-69
2021/10/28 20:37:22;;;;;;;19.03;17.03;;;9.40;99.90;;;;;;4936015;29;20447;-69
2021/10/28 20:39:48;;;;;;;21.93;17.70;;;9.40;99.90;;;;;;4945592;29;20857;-69
2021/10/28 20:42:17;;;;;;;18.00;16.13;;;9.40;99.90;;;;;;4942847;29;20246;-69
2021/10/28 20:44:47;;;;;;;20.97;17.10;;;9.30;99.90;;;;;;4950964;29;20323;-69
2021/10/28 20:47:13;;;;;;;17.17;14.70;;;9.30;99.90;;;;;;4936296;29;21167;-73
2021/10/28 20:49:39;;;;;;;22.10;17.90;;;9.30;99.90;;;;;;4951734;29;20460;-70
2021/10/28 20:52:06;;;;;;;22.10;19.40;;;9.30;99.90;;;;;;4942713;28;20236;-70
2021/10/28 20:54:31;;;;;;;21.27;18.07;;;9.20;99.90;;;;;;4944785;29;20484;-71
2021/10/28 20:57:02;;;;;;;21.03;18.23;;;9.20;99.90;;;;;;4936372;28;20570;-69
2021/10/28 20:59:29;;;;;;;19.13;17.27;;;9.20;99.90;;;;;;4951457;29;20256;-69
2021/10/28 21:01:55;;;;;;;22.13;17.90;;;9.10;99.90;;;;;;4943396;29;20844;-69
2021/10/28 21:04:21;;;;;;;21.87;18.67;;;9.10;99.90;;;;;;4941207;29;20448;-69
2021/10/28 21:06:46;;;;;;;23.70;18.80;;;9.10;99.90;;;;;;4933799;29;20441;-70
2021/10/28 21:09:12;;;;;;;22.40;18.03;;;9.10;99.90;;;;;;4949243;29;20201;-69
2021/10/28 21:11:39;;;;;;;22.37;19.13;;;9.10;99.90;;;;;;4949411;29;20549;-69
2021/10/28 21:14:05;;;;;;;22.57;20.03;;;9.10;99.90;;;;;;4951313;29;20195;-70
2021/10/28 21:16:31;;;;;;;27.07;18.17;;;9.10;99.90;;;;;;4939695;29;20455;-69
2021/10/28 21:18:56;;;;;;;21.67;19.47;;;9.00;99.90;;;;;;4946890;28;20998;-68
2021/10/28 21:21:22;;;;;;;20.10;18.00;;;9.00;99.90;;;;;;4948003;29;20480;-69
2021/10/28 21:23:48;;;;;;;24.30;20.27;;;8.90;99.90;;;;;;4938595;29;20189;-69
2021/10/28 21:26:13;;;;;;;22.47;19.17;;;8.90;99.90;;;;;;4949502;29;20678;-69
2021/10/28 21:28:39;;;;;;;27.17;20.27;;;8.90;99.90;;;;;;4944815;29;20223;-68
2021/10/28 21:31:06;;;;;;;30.37;22.73;;;8.80;99.90;;;;;;4935553;29;20196;-69
2021/10/28 21:33:32;;;;;;;25.73;20.17;;;8.80;99.90;;;;;;4947268;29;20188;-68
2021/10/28 21:35:58;;;;;;;25.90;20.87;;;8.70;99.90;;;;;;4938873;29;20450;-69
2021/10/28 21:38:24;;;;;;;27.60;20.70;;;8.70;99.90;;;;;;4939876;29;20616;-69
2021/10/28 21:40:49;;;;;;;28.83;23.40;;;8.70;99.90;;;;;;4932311;29;20532;-71
2021/10/28 21:43:17;;;;;;;22.03;19.67;;;8.70;99.90;;;;;;4949437;29;20279;-69